createdAt,value
2023-01-20T00:00:27.263Z,1006.22
2023-01-20T00:01:27.221Z,1006.20
2023-01-20T00:02:27.160Z,1006.22
2023-01-20T00:03:27.152Z,1006.25
2023-01-20T00:04:27.088Z,1006.20
2023-01-20T00:05:27.020Z,1006.21
2023-01-20T00:06:26.985Z,1006.21
2023-01-20T00:07:27.007Z,1006.22
2023-01-20T00:08:26.915Z,1006.19
2023-01-20T00:09:26.877Z,1006.19
2023-01-20T00:10:26.833Z,1006.23
2023-01-20T00:11:26.801Z,1006.22
2023-01-20T00:12:26.758Z,1006.23
2023-01-20T00:13:26.795Z,1006.23
2023-01-20T00:14:26.692Z,1006.21
2023-01-20T00:15:26.658Z,1006.28
2023-01-20T00:16:26.615Z,1006.28
2023-01-20T00:17:26.583Z,1006.26
2023-01-20T00:18:26.544Z,1006.26
2023-01-20T00:19:26.571Z,1006.29
2023-01-20T00:20:26.464Z,1006.28
2023-01-20T00:21:26.433Z,1006.32
2023-01-20T00:22:26.394Z,1006.26
2023-01-20T00:23:26.374Z,1006.28
2023-01-20T00:24:26.320Z,1006.33
2023-01-20T00:25:26.345Z,1006.35
2023-01-20T00:26:26.251Z,1006.38
2023-01-20T00:27:26.212Z,1006.33
2023-01-20T00:28:26.172Z,1006.33
2023-01-20T00:29:26.138Z,1006.40
2023-01-20T00:30:26.125Z,1006.39
2023-01-20T00:31:26.188Z,1006.39
2023-01-20T00:32:26.035Z,1006.40
2023-01-20T00:33:26.036Z,1006.38
2023-01-20T00:34:25.943Z,1006.36
2023-01-20T00:35:25.905Z,1006.38
2023-01-20T00:36:25.877Z,1006.39
2023-01-20T00:37:25.898Z,1006.40
2023-01-20T00:38:25.799Z,1006.42
2023-01-20T00:39:25.761Z,1006.43
2023-01-20T00:40:25.733Z,1006.38
2023-01-20T00:41:25.680Z,1006.40
2023-01-20T00:42:25.658Z,1006.37
2023-01-20T00:43:25.692Z,1006.42
2023-01-20T00:44:25.578Z,1006.44
2023-01-20T00:45:25.543Z,1006.41
2023-01-20T00:46:25.604Z,1006.41
2023-01-20T00:47:25.467Z,1006.44
2023-01-20T00:48:25.427Z,1006.47
2023-01-20T00:49:25.452Z,1006.45
2023-01-20T00:50:25.357Z,1006.44
2023-01-20T00:51:25.311Z,1006.45
2023-01-20T00:52:25.272Z,1006.45
2023-01-20T00:53:25.239Z,1006.51
2023-01-20T00:54:25.209Z,1006.49
2023-01-20T00:55:25.234Z,1006.47
2023-01-20T00:56:25.139Z,1006.48
2023-01-20T00:57:25.097Z,1006.51
2023-01-20T00:58:25.059Z,1006.52
2023-01-20T00:59:25.008Z,1006.49
2023-01-20T01:00:25.040Z,1006.49
2023-01-20T01:01:25.063Z,1006.52
2023-01-20T01:02:24.993Z,1006.53
2023-01-20T01:03:24.867Z,1006.50
2023-01-20T01:04:24.837Z,1006.59
2023-01-20T01:05:24.790Z,1006.61
2023-01-20T01:06:24.754Z,1006.60
2023-01-20T01:07:24.773Z,1006.61
2023-01-20T01:08:24.689Z,1006.64
2023-01-20T01:09:24.635Z,1006.66
2023-01-20T01:10:24.605Z,1006.70
2023-01-20T01:11:24.574Z,1006.69
2023-01-20T01:12:24.527Z,1006.71
2023-01-20T01:13:24.554Z,1006.72
2023-01-20T01:14:24.446Z,1006.69
2023-01-20T01:15:24.416Z,1006.73
2023-01-20T01:16:24.490Z,1006.75
2023-01-20T01:17:24.337Z,1006.76
2023-01-20T01:18:24.374Z,1006.76
2023-01-20T01:19:24.270Z,1006.79
2023-01-20T01:20:24.223Z,1006.81
2023-01-20T01:21:24.195Z,1006.81
2023-01-20T01:22:24.144Z,1006.82
2023-01-20T01:23:24.111Z,1006.83
2023-01-20T01:24:24.142Z,1006.84
2023-01-20T01:25:24.044Z,1006.89
2023-01-20T01:26:24.004Z,1006.90
2023-01-20T01:27:23.965Z,1006.91
2023-01-20T01:28:23.937Z,1006.90
2023-01-20T01:29:23.955Z,1006.98
2023-01-20T01:30:23.902Z,1006.95
2023-01-20T01:31:23.859Z,1006.96
2023-01-20T01:32:23.783Z,1006.96
2023-01-20T01:33:23.746Z,1007.01
2023-01-20T01:34:23.707Z,1007.00
2023-01-20T01:35:23.719Z,1007.03
2023-01-20T01:36:23.625Z,1007.02
2023-01-20T01:37:23.585Z,1007.03
2023-01-20T01:38:23.556Z,1007.01
2023-01-20T01:39:23.508Z,1007.06
2023-01-20T01:40:23.480Z,1007.04
2023-01-20T01:41:23.504Z,1007.06
2023-01-20T01:42:23.402Z,1007.02
2023-01-20T01:43:23.376Z,1007.05
2023-01-20T01:44:23.323Z,1007.08
2023-01-20T01:45:23.324Z,1007.08
2023-01-20T01:46:23.261Z,1007.07
2023-01-20T01:47:23.288Z,1007.05
2023-01-20T01:48:23.179Z,1007.04
2023-01-20T01:49:23.152Z,1007.07
2023-01-20T01:50:23.103Z,1007.07
2023-01-20T01:51:23.070Z,1007.11
2023-01-20T01:52:23.025Z,1007.07
2023-01-20T01:53:23.052Z,1007.11
2023-01-20T01:54:22.955Z,1007.09
2023-01-20T01:55:22.917Z,1007.10
2023-01-20T01:56:22.870Z,1007.11
2023-01-20T01:57:22.848Z,1007.13
2023-01-20T01:58:22.813Z,1007.16
2023-01-20T01:59:22.815Z,1007.11
2023-01-20T02:00:22.724Z,1007.17
2023-01-20T02:01:22.788Z,1007.18
2023-01-20T02:02:24.172Z,1007.19
2023-01-20T02:03:22.611Z,1007.18
2023-01-20T02:04:22.574Z,1007.21
2023-01-20T02:05:22.611Z,1007.23
2023-01-20T02:06:22.510Z,1007.25
2023-01-20T02:07:22.468Z,1007.27
2023-01-20T02:08:22.430Z,1007.26
2023-01-20T02:09:22.392Z,1007.32
2023-01-20T02:10:22.346Z,1007.34
2023-01-20T02:11:22.371Z,1007.38
2023-01-20T02:12:22.269Z,1007.35
2023-01-20T02:13:22.245Z,1007.39
2023-01-20T02:14:22.204Z,1007.40
2023-01-20T02:15:22.169Z,1007.41
2023-01-20T02:16:22.174Z,1007.44
2023-01-20T02:17:22.149Z,1007.43
2023-01-20T02:18:22.064Z,1007.44
2023-01-20T02:19:22.008Z,1007.43
2023-01-20T02:20:21.971Z,1007.45
2023-01-20T02:21:21.948Z,1007.47
2023-01-20T02:22:21.903Z,1007.47
2023-01-20T02:23:21.937Z,1007.51
2023-01-20T02:24:21.828Z,1007.48
2023-01-20T02:25:21.790Z,1007.53
2023-01-20T02:26:21.752Z,1007.51
2023-01-20T02:27:21.719Z,1007.48
2023-01-20T02:28:21.679Z,1007.52
2023-01-20T02:29:21.707Z,1007.56
2023-01-20T02:30:21.636Z,1007.53
2023-01-20T02:31:21.588Z,1007.54
2023-01-20T02:32:21.527Z,1007.55
2023-01-20T02:33:21.492Z,1007.57
2023-01-20T02:34:21.461Z,1007.62
2023-01-20T02:35:21.467Z,1007.64
2023-01-20T02:36:21.375Z,1007.62
2023-01-20T02:37:21.340Z,1007.68
2023-01-20T02:38:21.319Z,1007.74
2023-01-20T02:39:27.457Z,1007.77
2023-01-20T02:40:21.291Z,1007.80
2023-01-20T02:41:21.185Z,1007.79
2023-01-20T02:42:21.154Z,1007.82
2023-01-20T02:43:21.113Z,1007.83
2023-01-20T02:44:21.086Z,1007.86
2023-01-20T02:45:21.108Z,1007.86
2023-01-20T02:46:20.994Z,1007.84
2023-01-20T02:47:20.962Z,1007.86
2023-01-20T02:48:20.926Z,1007.83
2023-01-20T02:49:20.887Z,1007.87
2023-01-20T02:50:20.847Z,1007.88
2023-01-20T02:51:20.871Z,1007.88
2023-01-20T02:52:20.772Z,1007.88
2023-01-20T02:53:20.733Z,1007.91
2023-01-20T02:54:20.696Z,1007.90
2023-01-20T02:55:20.691Z,1007.95
2023-01-20T02:56:20.671Z,1007.94
2023-01-20T02:57:20.668Z,1007.97
2023-01-20T02:58:20.557Z,1007.97
2023-01-20T02:59:20.548Z,1007.97
2023-01-20T03:00:20.475Z,1007.98
2023-01-20T03:01:20.550Z,1007.98
2023-01-20T03:02:20.457Z,1008.00
2023-01-20T03:03:20.374Z,1007.99
2023-01-20T03:04:20.324Z,1007.99
2023-01-20T03:05:20.376Z,1007.98
2023-01-20T03:06:20.254Z,1008.01
2023-01-20T03:07:20.218Z,1008.01
2023-01-20T03:08:20.175Z,1008.04
2023-01-20T03:09:20.141Z,1008.03
2023-01-20T03:10:20.162Z,1008.01
2023-01-20T03:11:20.061Z,1008.04
2023-01-20T03:12:20.024Z,1007.98
2023-01-20T03:13:19.982Z,1008.01
2023-01-20T03:14:19.958Z,1007.98
2023-01-20T03:15:19.956Z,1008.01
2023-01-20T03:16:19.920Z,1008.03
2023-01-20T03:17:19.842Z,1008.06
2023-01-20T03:18:19.791Z,1008.06
2023-01-20T03:19:20.645Z,1008.08
2023-01-20T03:20:19.726Z,1008.10
2023-01-20T03:21:19.748Z,1008.10
2023-01-20T03:22:19.649Z,1008.10
2023-01-20T03:23:19.620Z,1008.14
2023-01-20T03:24:19.563Z,1008.12
2023-01-20T03:25:19.553Z,1008.13
2023-01-20T03:26:19.499Z,1008.16
2023-01-20T03:27:19.518Z,1008.15
2023-01-20T03:28:19.417Z,1008.14
2023-01-20T03:29:19.380Z,1008.16
2023-01-20T03:30:19.341Z,1008.14
2023-01-20T03:31:19.497Z,1008.19
2023-01-20T03:32:19.276Z,1008.20
2023-01-20T03:33:19.231Z,1008.23
2023-01-20T03:34:19.207Z,1008.24
2023-01-20T03:35:19.150Z,1008.30
2023-01-20T03:36:19.127Z,1008.26
2023-01-20T03:37:19.134Z,1008.31
2023-01-20T03:38:19.044Z,1008.29
2023-01-20T03:39:19.001Z,1008.29
2023-01-20T03:40:18.974Z,1008.32
2023-01-20T03:41:18.938Z,1008.35
2023-01-20T03:42:18.949Z,1008.34
2023-01-20T03:43:18.849Z,1008.32
2023-01-20T03:44:18.806Z,1008.35
2023-01-20T03:45:18.781Z,1008.30
2023-01-20T03:46:18.740Z,1008.35
2023-01-20T03:47:18.702Z,1008.32
2023-01-20T03:48:18.731Z,1008.35
2023-01-20T03:49:18.623Z,1008.35
2023-01-20T03:50:18.584Z,1008.35
2023-01-20T03:51:18.550Z,1008.34
2023-01-20T03:52:18.528Z,1008.36
2023-01-20T03:53:18.488Z,1008.35
2023-01-20T03:54:18.498Z,1008.37
2023-01-20T03:55:18.397Z,1008.42
2023-01-20T03:56:18.363Z,1008.41
2023-01-20T03:57:18.346Z,1008.41
2023-01-20T03:58:18.324Z,1008.40
2023-01-20T03:59:18.302Z,1008.43
2023-01-20T04:00:18.211Z,1008.45
2023-01-20T04:01:19.195Z,1008.43
2023-01-20T04:02:18.328Z,1008.47
2023-01-20T04:03:18.124Z,1008.46
2023-01-20T04:04:18.080Z,1008.46
2023-01-20T04:05:18.075Z,1008.49
2023-01-20T04:06:17.990Z,1008.49
2023-01-20T04:07:17.944Z,1008.51
2023-01-20T04:08:17.979Z,1008.50
2023-01-20T04:09:17.867Z,1008.53
2023-01-20T04:10:17.840Z,1008.52
2023-01-20T04:11:17.792Z,1008.56
2023-01-20T04:12:17.754Z,1008.59
2023-01-20T04:13:17.780Z,1008.59
2023-01-20T04:14:17.689Z,1008.60
2023-01-20T04:15:18.045Z,1008.59
2023-01-20T04:16:17.604Z,1008.64
2023-01-20T04:17:17.568Z,1008.63
2023-01-20T04:18:17.520Z,1008.61
2023-01-20T04:19:17.560Z,1008.61
2023-01-20T04:20:17.450Z,1008.66
2023-01-20T04:21:17.418Z,1008.68
2023-01-20T04:22:17.379Z,1008.71
2023-01-20T04:23:17.334Z,1008.69
2023-01-20T04:24:17.299Z,1008.67
2023-01-20T04:25:17.329Z,1008.67
2023-01-20T04:26:17.230Z,1008.67
2023-01-20T04:27:17.192Z,1008.65
2023-01-20T04:28:17.151Z,1008.69
2023-01-20T04:29:17.112Z,1008.69
2023-01-20T04:30:17.071Z,1008.67
2023-01-20T04:31:29.739Z,1008.66
2023-01-20T04:32:16.999Z,1008.67
2023-01-20T04:33:16.965Z,1008.67
2023-01-20T04:34:16.922Z,1008.69
2023-01-20T04:35:17.206Z,1008.69
2023-01-20T04:36:16.900Z,1008.69
2023-01-20T04:37:16.817Z,1008.68
2023-01-20T04:38:16.771Z,1008.72
2023-01-20T04:39:16.735Z,1008.75
2023-01-20T04:40:16.693Z,1008.79
2023-01-20T04:41:16.655Z,1008.80
2023-01-20T04:42:16.690Z,1008.83
2023-01-20T04:43:16.576Z,1008.85
2023-01-20T04:44:16.548Z,1008.88
2023-01-20T04:45:16.876Z,1008.86
2023-01-20T04:46:16.510Z,1008.88
2023-01-20T04:47:16.427Z,1008.88
2023-01-20T04:48:16.445Z,1008.89
2023-01-20T04:49:16.355Z,1008.88
2023-01-20T04:50:16.324Z,1008.93
2023-01-20T04:51:16.275Z,1008.92
2023-01-20T04:52:16.240Z,1008.96
2023-01-20T04:53:16.205Z,1008.96
2023-01-20T04:54:16.221Z,1008.98
2023-01-20T04:55:16.454Z,1009.00
2023-01-20T04:56:16.081Z,1009.00
2023-01-20T04:57:16.056Z,1009.02
2023-01-20T04:58:16.076Z,1009.05
2023-01-20T04:59:16.009Z,1009.10
2023-01-20T05:00:15.940Z,1009.05
2023-01-20T05:01:16.002Z,1009.07
2023-01-20T05:02:15.918Z,1009.06
2023-01-20T05:03:15.815Z,1009.06
2023-01-20T05:04:15.840Z,1009.05
2023-01-20T05:05:16.111Z,1009.06
2023-01-20T05:06:15.705Z,1009.06
2023-01-20T05:07:15.673Z,1009.10
2023-01-20T05:08:15.642Z,1009.09
2023-01-20T05:09:15.610Z,1009.12
2023-01-20T05:10:15.611Z,1009.09
2023-01-20T05:11:15.511Z,1009.11
2023-01-20T05:12:15.478Z,1009.09
2023-01-20T05:13:15.442Z,1009.08
2023-01-20T05:14:15.402Z,1009.09
2023-01-20T05:15:15.702Z,1009.11
2023-01-20T05:16:15.426Z,1009.13
2023-01-20T05:17:16.026Z,1009.15
2023-01-20T05:18:15.262Z,1009.13
2023-01-20T05:19:15.213Z,1009.17
2023-01-20T05:20:15.173Z,1009.16
2023-01-20T05:21:15.184Z,1009.19
2023-01-20T05:22:15.094Z,1009.21
2023-01-20T05:23:15.069Z,1009.21
2023-01-20T05:24:15.047Z,1009.26
2023-01-20T05:25:15.330Z,1009.27
2023-01-20T05:26:14.988Z,1009.28
2023-01-20T05:27:14.915Z,1009.30
2023-01-20T05:28:14.877Z,1009.31
2023-01-20T05:29:14.833Z,1009.33
2023-01-20T05:30:14.797Z,1009.33
2023-01-20T05:31:14.910Z,1009.35
2023-01-20T05:32:14.780Z,1009.35
2023-01-20T05:33:14.697Z,1009.39
2023-01-20T05:34:14.639Z,1009.40
2023-01-20T05:35:14.808Z,1009.43
2023-01-20T05:36:14.647Z,1009.45
2023-01-20T05:37:14.531Z,1009.46
2023-01-20T05:38:14.488Z,1009.48
2023-01-20T05:39:14.554Z,1009.51
2023-01-20T05:40:14.416Z,1009.52
2023-01-20T05:41:14.379Z,1009.53
2023-01-20T05:42:14.405Z,1009.53
2023-01-20T05:43:14.301Z,1009.54
2023-01-20T05:44:14.254Z,1009.55
2023-01-20T05:45:14.547Z,1009.56
2023-01-20T05:46:14.232Z,1009.55
2023-01-20T05:47:14.204Z,1009.56
2023-01-20T05:48:14.114Z,1009.60
2023-01-20T05:49:14.074Z,1009.60
2023-01-20T05:50:15.040Z,1009.59
2023-01-20T05:51:13.997Z,1009.59
2023-01-20T05:52:13.963Z,1009.59
2023-01-20T05:53:13.968Z,1009.64
2023-01-20T05:54:13.878Z,1009.66
2023-01-20T05:55:14.084Z,1009.66
2023-01-20T05:56:13.816Z,1009.65
2023-01-20T05:57:13.767Z,1009.66
2023-01-20T05:58:13.739Z,1009.65
2023-01-20T05:59:13.758Z,1009.69
2023-01-20T06:00:13.659Z,1009.71
2023-01-20T06:01:13.661Z,1009.71
2023-01-20T06:02:13.592Z,1009.72
2023-01-20T06:03:13.544Z,1009.75
2023-01-20T06:04:13.500Z,1009.78
2023-01-20T06:05:13.784Z,1009.81
2023-01-20T06:06:13.457Z,1009.81
2023-01-20T06:07:13.387Z,1009.80
2023-01-20T06:08:13.356Z,1009.84
2023-01-20T06:09:13.313Z,1009.82
2023-01-20T06:10:13.333Z,1009.86
2023-01-20T06:11:13.237Z,1009.86
2023-01-20T06:12:13.202Z,1009.87
2023-01-20T06:13:13.163Z,1009.87
2023-01-20T06:14:13.123Z,1009.90
2023-01-20T06:15:13.515Z,1009.90
2023-01-20T06:16:13.360Z,1009.94
2023-01-20T06:17:13.015Z,1009.93
2023-01-20T06:18:12.983Z,1009.95
2023-01-20T06:19:13.013Z,1009.92
2023-01-20T06:20:12.906Z,1009.92
2023-01-20T06:21:12.867Z,1010.01
2023-01-20T06:22:12.876Z,1009.98
2023-01-20T06:23:12.784Z,1009.99
2023-01-20T06:24:12.747Z,1010.03
2023-01-20T06:25:13.078Z,1010.07
2023-01-20T06:26:12.671Z,1010.08
2023-01-20T06:27:13.736Z,1010.10
2023-01-20T06:28:12.656Z,1010.17
2023-01-20T06:29:12.566Z,1010.16
2023-01-20T06:30:12.523Z,1010.22
2023-01-20T06:31:12.607Z,1010.22
2023-01-20T06:32:12.453Z,1010.21
2023-01-20T06:33:12.415Z,1010.21
2023-01-20T06:34:12.416Z,1010.24
2023-01-20T06:35:12.574Z,1010.20
2023-01-20T06:36:12.319Z,1010.22
2023-01-20T06:37:12.257Z,1010.26
2023-01-20T06:38:12.231Z,1010.23
2023-01-20T06:39:12.227Z,1010.24
2023-01-20T06:40:12.137Z,1010.29
2023-01-20T06:41:12.105Z,1010.28
2023-01-20T06:42:12.064Z,1010.32
2023-01-20T06:43:12.024Z,1010.35
2023-01-20T06:44:11.986Z,1010.39
2023-01-20T06:45:12.023Z,1010.45
2023-01-20T06:46:11.987Z,1010.45
2023-01-20T06:47:11.866Z,1010.46
2023-01-20T06:48:11.835Z,1010.49
2023-01-20T06:49:11.807Z,1010.52
2023-01-20T06:50:11.818Z,1010.53
2023-01-20T06:51:11.751Z,1010.55
2023-01-20T06:52:11.686Z,1010.57
2023-01-20T06:53:11.698Z,1010.59
2023-01-20T06:54:11.604Z,1010.61
2023-01-20T06:55:11.568Z,1010.61
2023-01-20T06:56:11.585Z,1010.62
2023-01-20T06:57:11.506Z,1010.64
2023-01-20T06:58:11.449Z,1010.67
2023-01-20T06:59:11.421Z,1010.68
2023-01-20T07:00:11.383Z,1010.66
2023-01-20T07:01:11.569Z,1010.67
2023-01-20T07:02:11.393Z,1010.70
2023-01-20T07:03:13.962Z,1010.72
2023-01-20T07:04:11.225Z,1010.72
2023-01-20T07:05:11.192Z,1010.74
2023-01-20T07:06:11.206Z,1010.72
2023-01-20T07:07:11.116Z,1010.72
2023-01-20T07:08:11.075Z,1010.77
2023-01-20T07:09:11.051Z,1010.75
2023-01-20T07:10:11.008Z,1010.72
2023-01-20T07:11:10.962Z,1010.76
2023-01-20T07:12:10.994Z,1010.76
2023-01-20T07:13:10.891Z,1010.80
2023-01-20T07:14:10.859Z,1010.77
2023-01-20T07:15:10.814Z,1010.80
2023-01-20T07:16:13.052Z,1010.87
2023-01-20T07:17:10.799Z,1010.83
2023-01-20T07:18:10.694Z,1010.87
2023-01-20T07:19:10.658Z,1010.88
2023-01-20T07:20:10.633Z,1010.93
2023-01-20T07:21:10.591Z,1010.96
2023-01-20T07:22:10.547Z,1010.97
2023-01-20T07:23:10.583Z,1010.99
2023-01-20T07:24:10.474Z,1011.00
2023-01-20T07:25:10.434Z,1011.05
2023-01-20T07:26:10.393Z,1011.05
2023-01-20T07:27:10.361Z,1011.02
2023-01-20T07:28:10.327Z,1011.08
2023-01-20T07:29:10.334Z,1011.08
2023-01-20T07:30:10.247Z,1011.08
2023-01-20T07:31:10.389Z,1011.06
2023-01-20T07:32:10.179Z,1011.04
2023-01-20T07:33:10.136Z,1011.08
2023-01-20T07:34:10.094Z,1011.06
2023-01-20T07:35:10.112Z,1011.09
2023-01-20T07:36:10.020Z,1011.12
2023-01-20T07:37:09.976Z,1011.11
2023-01-20T07:38:09.945Z,1011.13
2023-01-20T07:39:09.908Z,1011.21
2023-01-20T07:40:09.862Z,1011.20
2023-01-20T07:41:09.890Z,1011.22
2023-01-20T07:42:09.811Z,1011.27
2023-01-20T07:43:09.750Z,1011.29
2023-01-20T07:44:09.724Z,1011.31
2023-01-20T07:45:09.682Z,1011.30
2023-01-20T07:46:09.702Z,1011.32
2023-01-20T07:47:09.669Z,1011.37
2023-01-20T07:48:09.581Z,1011.38
2023-01-20T07:49:12.043Z,1011.38
2023-01-20T07:50:09.504Z,1011.38
2023-01-20T07:51:09.468Z,1011.40
2023-01-20T07:52:09.465Z,1011.39
2023-01-20T07:53:09.378Z,1011.36
2023-01-20T07:54:09.338Z,1011.36
2023-01-20T07:55:09.296Z,1011.41
2023-01-20T07:56:09.260Z,1011.39
2023-01-20T07:57:09.220Z,1011.39
2023-01-20T07:58:09.234Z,1011.40
2023-01-20T07:59:09.147Z,1011.39
2023-01-20T08:00:09.148Z,1011.42
2023-01-20T08:01:09.236Z,1011.43
2023-01-20T08:02:09.035Z,1011.41
2023-01-20T08:03:08.996Z,1011.43
2023-01-20T08:04:09.025Z,1011.44
2023-01-20T08:05:08.964Z,1011.47
2023-01-20T08:06:08.943Z,1011.49
2023-01-20T08:07:08.868Z,1011.50
2023-01-20T08:08:08.812Z,1011.52
2023-01-20T08:09:08.776Z,1011.49
2023-01-20T08:10:08.769Z,1011.59
2023-01-20T08:11:08.700Z,1011.56
2023-01-20T08:12:08.649Z,1011.57
2023-01-20T08:13:08.611Z,1011.57
2023-01-20T08:14:08.579Z,1011.58
2023-01-20T08:15:08.561Z,1011.58
2023-01-20T08:16:08.554Z,1011.62
2023-01-20T08:17:08.463Z,1011.63
2023-01-20T08:18:08.422Z,1011.62
2023-01-20T08:19:08.409Z,1011.62
2023-01-20T08:20:08.357Z,1011.65
2023-01-20T08:21:08.538Z,1011.61
2023-01-20T08:22:08.339Z,1011.63
2023-01-20T08:23:08.238Z,1011.62
2023-01-20T08:24:08.208Z,1011.64
2023-01-20T08:25:08.204Z,1011.64
2023-01-20T08:26:08.141Z,1011.69
2023-01-20T08:27:08.096Z,1011.73
2023-01-20T08:28:08.277Z,1011.76
2023-01-20T08:29:08.016Z,1011.76
2023-01-20T08:30:07.996Z,1011.81
2023-01-20T08:31:08.045Z,1011.78
2023-01-20T08:32:07.903Z,1011.81
2023-01-20T08:33:07.857Z,1011.84
2023-01-20T08:34:07.878Z,1011.84
2023-01-20T08:35:07.791Z,1011.88
2023-01-20T08:36:07.753Z,1011.87
2023-01-20T08:37:07.745Z,1011.88
2023-01-20T08:38:07.684Z,1011.89
2023-01-20T08:39:07.646Z,1011.88
2023-01-20T08:40:07.681Z,1011.85
2023-01-20T08:41:07.558Z,1011.88
2023-01-20T08:42:07.521Z,1011.86
2023-01-20T08:43:07.485Z,1011.84
2023-01-20T08:44:07.457Z,1011.86
2023-01-20T08:45:07.404Z,1011.85
2023-01-20T08:46:07.575Z,1011.89
2023-01-20T08:47:07.357Z,1011.86
2023-01-20T08:48:07.285Z,1011.89
2023-01-20T08:49:07.318Z,1011.91
2023-01-20T08:50:07.206Z,1011.93
2023-01-20T08:51:07.203Z,1011.92
2023-01-20T08:52:07.174Z,1011.99
2023-01-20T08:53:07.107Z,1011.98
2023-01-20T08:54:07.068Z,1011.97
2023-01-20T08:55:07.114Z,1012.01
2023-01-20T08:56:06.990Z,1012.00
2023-01-20T08:57:06.939Z,1012.02
2023-01-20T08:58:06.917Z,1012.00
2023-01-20T08:59:06.875Z,1012.00
2023-01-20T09:00:06.831Z,1012.04
2023-01-20T09:01:06.885Z,1012.05
2023-01-20T09:02:07.059Z,1012.12
2023-01-20T09:03:06.725Z,1012.14
2023-01-20T09:04:07.423Z,1012.17
2023-01-20T09:05:06.702Z,1012.19
2023-01-20T09:06:06.597Z,1012.17
2023-01-20T09:07:06.559Z,1012.21
2023-01-20T09:08:06.528Z,1012.23
2023-01-20T09:09:06.498Z,1012.26
2023-01-20T09:10:06.479Z,1012.28
2023-01-20T09:11:06.497Z,1012.27
2023-01-20T09:12:06.382Z,1012.31
2023-01-20T09:13:06.333Z,1012.35
2023-01-20T09:14:06.304Z,1012.38
2023-01-20T09:15:06.282Z,1012.39
2023-01-20T09:16:06.300Z,1012.38
2023-01-20T09:17:06.234Z,1012.41
2023-01-20T09:18:06.153Z,1012.39
2023-01-20T09:19:06.106Z,1012.41
2023-01-20T09:20:06.073Z,1012.43
2023-01-20T09:21:06.031Z,1012.47
2023-01-20T09:22:06.061Z,1012.47
2023-01-20T09:23:05.954Z,1012.49
2023-01-20T09:24:05.921Z,1012.48
2023-01-20T09:25:05.885Z,1012.51
2023-01-20T09:26:05.849Z,1012.53
2023-01-20T09:27:05.822Z,1012.56
2023-01-20T09:28:06.719Z,1012.58
2023-01-20T09:29:05.727Z,1012.61
2023-01-20T09:30:05.697Z,1012.63
2023-01-20T09:31:05.755Z,1012.65
2023-01-20T09:32:05.661Z,1012.63
2023-01-20T09:33:05.575Z,1012.59
2023-01-20T09:34:05.624Z,1012.66
2023-01-20T09:35:05.503Z,1012.64
2023-01-20T09:36:05.464Z,1012.65
2023-01-20T09:37:05.430Z,1012.66
2023-01-20T09:38:05.403Z,1012.69
2023-01-20T09:39:05.363Z,1012.71
2023-01-20T09:40:05.365Z,1012.68
2023-01-20T09:41:05.292Z,1012.70
2023-01-20T09:42:05.260Z,1012.74
2023-01-20T09:43:05.211Z,1012.75
2023-01-20T09:44:05.170Z,1012.75
2023-01-20T09:45:05.144Z,1012.79
2023-01-20T09:46:05.173Z,1012.80
2023-01-20T09:47:05.048Z,1012.81
2023-01-20T09:48:05.011Z,1012.80
2023-01-20T09:49:04.981Z,1012.82
2023-01-20T09:50:04.942Z,1012.81
2023-01-20T09:51:04.907Z,1012.82
2023-01-20T09:52:04.923Z,1012.83
2023-01-20T09:53:04.824Z,1012.79
2023-01-20T09:54:04.831Z,1012.75
2023-01-20T09:55:04.762Z,1012.81
2023-01-20T09:56:05.961Z,1012.79
2023-01-20T09:57:04.727Z,1012.81
2023-01-20T09:58:04.709Z,1012.85
2023-01-20T09:59:04.616Z,1012.85
2023-01-20T10:00:04.578Z,1012.81
2023-01-20T10:01:04.542Z,1012.87
2023-01-20T10:02:04.503Z,1012.86
2023-01-20T10:03:04.455Z,1012.88
2023-01-20T10:04:05.033Z,1012.87
2023-01-20T10:05:04.417Z,1012.88
2023-01-20T10:06:04.349Z,1012.88
2023-01-20T10:07:04.309Z,1012.88
2023-01-20T10:08:04.274Z,1012.92
2023-01-20T10:09:06.280Z,1012.94
2023-01-20T10:10:04.301Z,1012.94
2023-01-20T10:11:04.160Z,1012.98
2023-01-20T10:12:04.124Z,1012.97
2023-01-20T10:13:04.086Z,1013.03
2023-01-20T10:14:04.041Z,1013.02
2023-01-20T10:15:04.023Z,1013.01
2023-01-20T10:16:04.145Z,1013.03
2023-01-20T10:17:03.929Z,1013.02
2023-01-20T10:18:03.914Z,1013.01
2023-01-20T10:19:03.863Z,1013.06
2023-01-20T10:20:03.824Z,1013.05
2023-01-20T10:21:03.781Z,1013.07
2023-01-20T10:22:03.805Z,1013.06
2023-01-20T10:23:03.721Z,1013.03
2023-01-20T10:24:03.677Z,1013.06
2023-01-20T10:25:03.641Z,1013.06
2023-01-20T10:26:03.604Z,1013.04
2023-01-20T10:27:03.594Z,1013.07
2023-01-20T10:28:03.570Z,1013.04
2023-01-20T10:29:03.493Z,1013.06
2023-01-20T10:30:03.452Z,1013.05
2023-01-20T10:31:03.530Z,1013.11
2023-01-20T10:32:03.379Z,1013.05
2023-01-20T10:33:03.348Z,1013.06
2023-01-20T10:34:03.343Z,1013.03
2023-01-20T10:35:03.266Z,1013.10
2023-01-20T10:36:03.233Z,1013.12
2023-01-20T10:37:03.184Z,1013.10
2023-01-20T10:38:03.161Z,1013.10
2023-01-20T10:39:03.164Z,1013.10
2023-01-20T10:40:03.076Z,1013.10
2023-01-20T10:41:03.040Z,1013.10
2023-01-20T10:42:03.011Z,1013.13
2023-01-20T10:43:02.972Z,1013.14
2023-01-20T10:44:02.934Z,1013.16
2023-01-20T10:45:03.017Z,1013.15
2023-01-20T10:46:02.870Z,1013.16
2023-01-20T10:47:02.822Z,1013.17
2023-01-20T10:48:02.787Z,1013.18
2023-01-20T10:49:02.769Z,1013.14
2023-01-20T10:50:02.722Z,1013.20
2023-01-20T10:51:02.732Z,1013.15
2023-01-20T10:52:02.679Z,1013.16
2023-01-20T10:53:02.617Z,1013.21
2023-01-20T10:54:02.575Z,1013.19
2023-01-20T10:55:02.534Z,1013.18
2023-01-20T10:56:02.500Z,1013.19
2023-01-20T10:57:02.505Z,1013.23
2023-01-20T10:58:02.431Z,1013.25
2023-01-20T10:59:02.381Z,1013.26
2023-01-20T11:00:02.369Z,1013.25
2023-01-20T11:01:02.317Z,1013.22
2023-01-20T11:02:11.387Z,1013.30
2023-01-20T11:03:02.371Z,1013.31
2023-01-20T11:04:02.199Z,1013.29
2023-01-20T11:05:02.167Z,1013.34
2023-01-20T11:06:02.144Z,1013.33
2023-01-20T11:07:02.097Z,1013.36
2023-01-20T11:08:02.148Z,1013.35
2023-01-20T11:09:02.028Z,1013.36
2023-01-20T11:10:01.987Z,1013.36
2023-01-20T11:11:01.960Z,1013.42
2023-01-20T11:12:01.957Z,1013.44
2023-01-20T11:13:01.940Z,1013.45
2023-01-20T11:14:01.856Z,1013.44
2023-01-20T11:15:01.812Z,1013.40
2023-01-20T11:16:01.807Z,1013.50
2023-01-20T11:17:01.739Z,1013.44
2023-01-20T11:18:01.765Z,1013.44
2023-01-20T11:19:01.660Z,1013.45
2023-01-20T11:20:01.632Z,1013.46
2023-01-20T11:21:01.590Z,1013.47
2023-01-20T11:22:01.551Z,1013.43
2023-01-20T11:23:01.652Z,1013.41
2023-01-20T11:24:01.488Z,1013.40
2023-01-20T11:25:01.449Z,1013.41
2023-01-20T11:26:01.399Z,1013.39
2023-01-20T11:27:01.373Z,1013.43
2023-01-20T11:28:01.390Z,1013.43
2023-01-20T11:29:01.302Z,1013.44
2023-01-20T11:30:01.255Z,1013.47
2023-01-20T11:31:01.311Z,1013.51
2023-01-20T11:32:01.205Z,1013.45
2023-01-20T11:33:01.246Z,1013.46
2023-01-20T11:34:01.116Z,1013.47
2023-01-20T11:35:01.079Z,1013.47
2023-01-20T11:36:01.056Z,1013.47
2023-01-20T11:37:01.006Z,1013.45
2023-01-20T11:38:01.052Z,1013.45
2023-01-20T11:39:00.944Z,1013.49
2023-01-20T11:40:00.906Z,1013.49
2023-01-20T11:41:00.863Z,1013.48
2023-01-20T11:42:00.826Z,1013.49
2023-01-20T11:43:00.797Z,1013.46
2023-01-20T11:44:00.857Z,1013.47
2023-01-20T11:45:19.786Z,1013.48
2023-01-20T11:46:00.695Z,1013.50
2023-01-20T11:47:00.652Z,1013.48
2023-01-20T11:48:00.629Z,1013.44
2023-01-20T11:49:00.580Z,1013.45
2023-01-20T11:50:00.609Z,1013.46
2023-01-20T11:51:00.506Z,1013.48
2023-01-20T11:52:00.506Z,1013.47
2023-01-20T11:53:00.443Z,1013.50
2023-01-20T11:54:00.403Z,1013.48
2023-01-20T11:55:00.388Z,1013.47
2023-01-20T11:56:00.387Z,1013.47
2023-01-20T11:57:00.296Z,1013.46
2023-01-20T11:58:00.331Z,1013.51
2023-01-20T11:59:00.235Z,1013.49
2023-01-20T12:00:00.250Z,1013.48
2023-01-20T12:01:00.160Z,1013.50
2023-01-20T12:02:00.304Z,1013.48
2023-01-20T12:03:00.111Z,1013.49
2023-01-20T12:04:00.065Z,1013.50
2023-01-20T12:05:00.054Z,1013.50